Time;durP1;ratioP1;P1;durP2;ratioP2;P2;SDS_P1;SDS_P2;PMS_P1;PMS_P2;Temp;Humidity;BMP_temperature;BMP_pressure;BME280_temperature;BME280_humidity;BME280_pressure;Samples;Min_cycle;Max_cycle;Signal;HPM_P1;HPM_P2
2024/01/28 00:00:11;;;;;;;0.30;0.20;;;;;;;4.29;50.90;96217.16;5092289;28;20485;-55
2024/01/28 00:02:39;;;;;;;0.30;0.20;;;;;;;4.25;51.26;96221.19;5091983;28;20527;-56
2024/01/28 00:05:09;;;;;;;0.47;0.30;;;;;;;4.21;51.12;96219.19;5091521;28;20440;-55
2024/01/28 00:07:38;;;;;;;1.23;1.17;;;;;;;4.10;51.40;96230.34;5091609;28;20428;-55
2024/01/28 00:10:09;;;;;;;0.40;0.20;;;;;;;4.04;51.72;96221.47;5091592;28;20440;-56
2024/01/28 00:12:38;;;;;;;2.00;0.60;;;;;;;3.92;51.85;96222.31;5090977;28;20440;-56
2024/01/28 00:15:10;;;;;;;3.87;0.40;;;;;;;3.73;52.21;96231.81;5091584;28;20519;-56
2024/01/28 00:17:38;;;;;;;1.23;1.13;;;;;;;3.04;53.34;96244.53;5091646;28;20469;-55
2024/01/28 00:20:09;;;;;;;0.50;0.40;;;;;;;3.43;53.75;96243.75;5092125;28;20440;-56
2024/01/28 00:22:38;;;;;;;0.40;0.30;;;;;;;3.65;52.96;96240.72;5091281;28;20436;-55
2024/01/28 00:25:08;;;;;;;0.50;0.50;;;;;;;3.37;52.79;96208.66;5090978;28;20445;-56
2024/01/28 00:27:37;;;;;;;2.30;0.30;;;;;;;3.38;52.78;96236.50;5090909;28;20464;-56
2024/01/28 00:30:08;;;;;;;0.40;0.30;;;;;;;2.96;53.52;96239.50;5092332;28;20444;-57
2024/01/28 00:32:40;;;;;;;0.30;0.20;;;;;;;2.84;54.10;96230.59;5092012;28;20825;-56
2024/01/28 00:35:09;;;;;;;0.70;0.60;;;;;;;3.06;53.74;96250.38;5091340;28;20436;-55
2024/01/28 00:37:38;;;;;;;0.30;0.20;;;;;;;3.51;52.81;96261.91;5091890;28;20436;-55
2024/01/28 00:40:09;;;;;;;0.30;0.20;;;;;;;3.16;51.96;96154.66;5091759;28;20466;-56
2024/01/28 00:42:38;;;;;;;0.30;0.20;;;;;;;3.76;51.91;96242.72;5091888;28;20440;-56
2024/01/28 00:45:07;;;;;;;0.30;0.20;;;;;;;3.94;51.88;96230.78;5091632;28;20442;-56
2024/01/28 00:47:36;;;;;;;0.30;0.20;;;;;;;3.80;51.53;96236.03;5092019;28;20436;-56
2024/01/28 00:50:06;;;;;;;0.97;0.87;;;;;;;3.80;52.06;96235.25;5091595;28;20821;-56
2024/01/28 00:52:35;;;;;;;0.47;0.47;;;;;;;3.59;51.80;96196.16;5091657;28;20455;-57
2024/01/28 00:55:06;;;;;;;0.30;0.20;;;;;;;3.97;51.83;96249.56;5091016;28;20510;-56
2024/01/28 00:57:36;;;;;;;0.30;0.20;;;;;;;3.98;51.51;96258.19;5091545;28;20824;-56
2024/01/28 01:00:06;;;;;;;0.30;0.20;;;;;;;3.98;51.24;96245.09;5091354;28;20951;-56
2024/01/28 01:02:35;;;;;;;0.30;0.20;;;;;;;4.03;51.41;96248.72;5097725;28;20496;-56
2024/01/28 01:05:04;;;;;;;0.30;0.20;;;;;;;3.98;51.63;96243.28;5097770;28;20451;-56
2024/01/28 01:07:33;;;;;;;0.30;0.20;;;;;;;3.63;51.75;96205.22;5098482;28;20925;-55
2024/01/28 01:10:01;;;;;;;0.50;0.43;;;;;;;3.50;52.19;96200.81;5098457;28;20940;-56
2024/01/28 01:12:30;;;;;;;0.30;0.20;;;;;;;3.60;51.96;96232.66;5098214;28;20435;-56
2024/01/28 01:15:00;;;;;;;0.63;0.63;;;;;;;3.66;52.25;96250.19;5097594;28;20979;-55
2024/01/28 01:17:29;;;;;;;0.30;0.20;;;;;;;3.58;51.71;96228.63;5097718;28;20440;-56
2024/01/28 01:19:57;;;;;;;0.33;0.23;;;;;;;3.58;52.36;96237.28;5098167;28;20436;-55
2024/01/28 01:22:26;;;;;;;0.30;0.20;;;;;;;3.69;51.54;96235.88;5097675;28;20489;-55
2024/01/28 01:24:54;;;;;;;0.30;0.20;;;;;;;3.71;51.49;96236.47;5098134;28;20448;-55
2024/01/28 01:27:23;;;;;;;0.30;0.20;;;;;;;3.69;51.01;96226.16;5098155;28;20432;-55
2024/01/28 01:29:53;;;;;;;0.30;0.20;;;;;;;3.74;50.82;96234.22;5098131;28;20440;-55
2024/01/28 01:32:23;;;;;;;0.30;0.20;;;;;;;3.74;50.69;96228.22;5098013;28;20452;-57
2024/01/28 01:34:51;;;;;;;0.40;0.20;;;;;;;3.70;50.49;96230.41;5098367;28;20475;-56
2024/01/28 01:37:20;;;;;;;0.30;0.20;;;;;;;3.74;50.40;96233.44;5097814;28;20440;-56
2024/01/28 01:39:49;;;;;;;0.30;0.20;;;;;;;3.67;50.84;96230.00;5097814;28;20948;-57
2024/01/28 01:42:17;;;;;;;0.30;0.20;;;;;;;3.69;50.97;96228.78;5097500;28;20424;-56
2024/01/28 01:44:46;;;;;;;0.30;0.20;;;;;;;3.14;51.52;96239.69;5097692;28;20511;-56
2024/01/28 01:47:15;;;;;;;0.30;0.20;;;;;;;3.26;52.31;96243.34;5071704;28;20522;-57
2024/01/28 01:49:45;;;;;;;0.40;0.40;;;;;;;3.31;51.50;96246.19;5097516;28;20448;-56
2024/01/28 01:52:16;;;;;;;0.40;0.40;;;;;;;3.21;52.17;96243.94;5097579;28;20940;-56
2024/01/28 01:54:46;;;;;;;0.40;0.30;;;;;;;3.07;52.84;96238.88;5097158;28;20491;-56
2024/01/28 01:57:16;;;;;;;0.40;0.30;;;;;;;3.04;53.08;96241.91;5097601;28;20444;-56
2024/01/28 01:59:47;;;;;;;0.87;0.47;;;;;;;2.53;53.84;96247.63;5097255;28;20496;-56
2024/01/28 02:02:16;;;;;;;3.43;0.40;;;;;;;2.32;54.61;96250.38;5097805;28;20440;-57
2024/01/28 02:04:47;;;;;;;0.50;0.40;;;;;;;1.85;56.40;96234.63;5097714;28;20948;-56
2024/01/28 02:07:16;;;;;;;2.10;2.00;;;;;;;1.92;57.12;96243.34;5097668;28;20440;-56
2024/01/28 02:09:45;;;;;;;0.80;0.33;;;;;;;2.34;55.42;96243.13;5097030;28;20956;-56
2024/01/28 02:12:14;;;;;;;0.30;0.20;;;;;;;1.92;55.70;96244.13;5096730;28;20436;-56
2024/01/28 02:14:43;;;;;;;0.30;0.20;;;;;;;1.94;55.70;96249.19;5093973;28;20472;-56
2024/01/28 02:17:12;;;;;;;0.50;0.30;;;;;;;1.88;55.65;96244.72;5094882;28;20521;-56
2024/01/28 02:19:40;;;;;;;0.40;0.40;;;;;;;1.84;55.81;96248.72;5068128;28;20440;-57
2024/01/28 02:22:13;;;;;;;0.40;0.30;;;;;;;1.81;55.91;96255.13;5093839;28;20780;-56
2024/01/28 02:24:43;;;;;;;0.30;0.30;;;;;;;1.62;56.14;96247.19;5094705;28;20436;-56
2024/01/28 02:27:12;;;;;;;0.30;0.20;;;;;;;1.48;56.47;96261.94;5093708;28;20972;-56
2024/01/28 02:29:40;;;;;;;0.60;0.40;;;;;;;1.89;56.42;96262.03;5094476;28;20440;-56
2024/01/28 02:32:10;;;;;;;0.87;0.80;;;;;;;1.81;56.32;96265.59;5093464;28;20441;-55
2024/01/28 02:34:39;;;;;;;0.40;0.30;;;;;;;1.51;56.08;96214.53;5094082;28;20467;-56
2024/01/28 02:37:09;;;;;;;0.53;0.53;;;;;;;1.62;57.09;96266.25;5093935;28;20830;-56
2024/01/28 02:39:38;;;;;;;0.30;0.20;;;;;;;1.92;56.68;96266.88;5094176;28;20529;-56
2024/01/28 02:42:09;;;;;;;0.40;0.23;;;;;;;2.03;55.73;96282.00;5094208;28;20463;-56
2024/01/28 02:44:37;;;;;;;0.60;0.40;;;;;;;2.35;55.10;96291.03;5093763;28;20440;-56
2024/01/28 02:47:06;;;;;;;0.30;0.20;;;;;;;2.64;54.39;96289.94;5093399;28;20502;-56
2024/01/28 02:49:34;;;;;;;0.30;0.20;;;;;;;2.74;53.96;96272.03;5093737;28;20443;-56
2024/01/28 02:52:03;;;;;;;0.70;0.23;;;;;;;2.90;53.64;96284.78;5067248;28;20440;-56
2024/01/28 02:54:32;;;;;;;0.30;0.20;;;;;;;3.01;53.23;96285.00;5093045;28;20487;-55
2024/01/28 02:57:00;;;;;;;0.63;0.60;;;;;;;2.94;53.79;96286.81;5092847;28;20440;-56
2024/01/28 02:59:31;;;;;;;0.40;0.20;;;;;;;2.08;54.13;96222.09;5093035;28;20486;-56
2024/01/28 03:01:59;;;;;;;0.30;0.20;;;;;;;2.41;54.75;96298.91;5093333;28;20505;-56
2024/01/28 03:04:28;;;;;;;0.40;0.30;;;;;;;2.60;54.90;96299.19;5093455;28;20846;-56
2024/01/28 03:06:57;;;;;;;0.60;0.53;;;;;;;2.71;54.18;96296.81;5092809;28;20450;-56
2024/01/28 03:09:25;;;;;;;0.57;0.57;;;;;;;2.77;54.25;96301.25;5092839;28;20469;-56
2024/01/28 03:11:54;;;;;;;0.60;0.20;;;;;;;2.86;53.46;96296.66;5092558;28;20451;-56
2024/01/28 03:14:23;;;;;;;1.10;1.00;;;;;;;2.87;53.43;96303.50;5091908;28;20957;-56
2024/01/28 03:16:53;;;;;;;0.67;0.40;;;;;;;2.91;53.35;96299.50;5081762;28;20441;-56
2024/01/28 03:19:21;;;;;;;0.80;0.33;;;;;;;2.26;54.03;96256.38;5090804;28;21025;-56
2024/01/28 03:21:51;;;;;;;0.60;0.40;;;;;;;1.91;56.67;96315.72;5092744;28;20493;-56
2024/01/28 03:24:19;;;;;;;0.53;0.53;;;;;;;1.65;56.96;96314.69;5092374;28;20886;-56
2024/01/28 03:26:48;;;;;;;1.50;0.50;;;;;;;1.46;57.17;96316.19;5092749;28;20460;-56
2024/01/28 03:29:17;;;;;;;2.00;0.50;;;;;;;1.45;56.94;96311.13;5066741;28;20480;-55
2024/01/28 03:31:46;;;;;;;0.50;0.47;;;;;;;1.47;57.34;96309.94;5093015;28;20469;-56
2024/01/28 03:34:16;;;;;;;1.13;0.67;;;;;;;1.55;57.59;96294.13;5093150;28;20802;-57
2024/01/28 03:36:45;;;;;;;0.30;0.20;;;;;;;1.20;57.88;96301.06;5092694;28;20936;-56
2024/01/28 03:39:15;;;;;;;0.70;0.43;;;;;;;1.51;59.50;96308.59;5092301;28;20472;-56
2024/01/28 03:41:43;;;;;;;0.60;0.47;;;;;;;1.71;57.19;96266.91;5091911;28;20511;-55
2024/01/28 03:44:15;;;;;;;0.47;0.47;;;;;;;1.99;55.58;96306.91;5092744;28;20436;-56
2024/01/28 03:46:43;;;;;;;0.40;0.27;;;;;;;2.61;54.87;96313.91;5091994;28;20448;-56
2024/01/28 03:49:12;;;;;;;0.30;0.20;;;;;;;2.34;54.97;96311.16;5092464;28;20444;-56
2024/01/28 03:51:42;;;;;;;0.80;0.40;;;;;;;1.83;56.72;96321.09;5091911;28;20436;-56
2024/01/28 03:54:11;;;;;;;0.30;0.20;;;;;;;1.78;57.79;96313.00;5081091;28;20468;-56
2024/01/28 03:56:40;;;;;;;0.30;0.27;;;;;;;2.10;57.58;96342.19;5090031;28;20510;-56
2024/01/28 03:59:10;;;;;;;0.30;0.20;;;;;;;2.21;56.04;96291.94;5092286;28;20442;-55
2024/01/28 04:01:39;;;;;;;1.40;0.73;;;;;;;2.83;54.93;96342.38;5091322;28;20432;-56
2024/01/28 04:04:08;;;;;;;0.30;0.30;;;;;;;2.86;54.86;96315.00;5092139;28;20439;-56
2024/01/28 04:06:44;;;;;;;0.30;0.30;;;;;;;3.24;54.20;96339.66;5091530;28;20463;-56
2024/01/28 04:09:13;;;;;;;0.53;0.30;;;;;;;3.12;54.11;96322.91;5092060;28;20493;-57
2024/01/28 04:11:42;;;;;;;0.60;0.60;;;;;;;3.27;54.07;96344.50;5092142;28;20448;-55
2024/01/28 04:14:10;;;;;;;2.00;1.07;;;;;;;3.07;54.17;96318.28;5091377;28;20444;-56
2024/01/28 04:16:39;;;;;;;0.63;0.40;;;;;;;3.42;54.33;96355.63;5091944;28;20963;-55
2024/01/28 04:19:07;;;;;;;0.50;0.50;;;;;;;3.49;54.21;96364.28;5091441;28;20455;-57
2024/01/28 04:21:36;;;;;;;3.70;0.30;;;;;;;3.52;54.00;96369.13;5091472;28;20450;-55
2024/01/28 04:24:07;;;;;;;0.43;0.40;;;;;;;3.53;54.10;96376.00;5091238;28;20512;-56
2024/01/28 04:26:35;;;;;;;0.80;0.40;;;;;;;3.59;54.20;96375.19;5091193;28;20532;-55
2024/01/28 04:29:04;;;;;;;0.87;0.87;;;;;;;3.43;54.36;96351.19;5090768;28;20505;-57
2024/01/28 04:31:33;;;;;;;1.17;0.30;;;;;;;3.61;54.38;96381.06;5091510;28;20521;-57
2024/01/28 04:34:01;;;;;;;0.30;0.20;;;;;;;3.36;54.28;96332.03;5091297;28;20531;-57
2024/01/28 04:36:31;;;;;;;0.50;0.50;;;;;;;3.50;54.34;96362.47;5090972;28;20482;-57
2024/01/28 04:38:59;;;;;;;0.70;0.50;;;;;;;3.29;54.54;96379.16;5091349;28;20448;-58
2024/01/28 04:41:29;;;;;;;0.70;0.50;;;;;;;3.15;56.35;96395.84;5091530;28;20933;-58
2024/01/28 04:43:58;;;;;;;5.90;0.80;;;;;;;3.10;55.37;96358.97;5065325;28;20462;-57
2024/01/28 04:46:26;;;;;;;0.77;0.77;;;;;;;3.40;55.51;96396.94;5091322;28;20952;-56
2024/01/28 04:48:55;;;;;;;3.73;0.60;;;;;;;2.53;55.94;96352.28;5091421;28;20511;-57
2024/01/28 04:51:24;;;;;;;0.63;0.43;;;;;;;2.79;56.91;96395.28;5091423;28;20447;-56
2024/01/28 04:53:52;;;;;;;3.83;0.60;;;;;;;2.78;57.30;96391.09;5091391;28;20467;-56
2024/01/28 04:56:21;;;;;;;1.53;0.50;;;;;;;2.77;56.82;96394.69;5091106;28;20519;-56
2024/01/28 04:58:51;;;;;;;0.93;0.67;;;;;;;2.73;57.41;96394.28;5091661;28;20455;-57
2024/01/28 05:01:20;;;;;;;3.40;0.70;;;;;;;2.79;57.59;96395.28;5091595;28;20464;-56
2024/01/28 05:03:48;;;;;;;0.40;0.40;;;;;;;2.97;58.53;96387.72;5091148;28;20930;-57
2024/01/28 05:06:18;;;;;;;0.60;0.57;;;;;;;2.82;57.11;96398.34;5091117;28;20432;-57
2024/01/28 05:08:46;;;;;;;0.50;0.40;;;;;;;2.95;56.76;96397.59;5091001;28;20452;-57
2024/01/28 05:11:15;;;;;;;0.30;0.30;;;;;;;2.44;56.57;96319.44;5089444;28;20463;-56
2024/01/28 05:13:44;;;;;;;11.73;0.60;;;;;;;3.28;55.78;96400.34;5091286;28;20441;-56
2024/01/28 05:16:14;;;;;;;0.40;0.40;;;;;;;3.20;56.04;96403.94;5091094;28;20476;-56
2024/01/28 05:18:42;;;;;;;0.50;0.40;;;;;;;3.32;55.48;96397.13;5091089;28;20438;-56
2024/01/28 05:21:11;;;;;;;0.50;0.50;;;;;;;3.26;55.43;96394.50;5090161;28;20462;-57
2024/01/28 05:23:40;;;;;;;0.43;0.40;;;;;;;1.92;55.77;96223.22;5090659;28;21005;-56
2024/01/28 05:26:08;;;;;;;0.30;0.20;;;;;;;3.33;55.32;96398.75;5090773;28;20497;-56
2024/01/28 05:28:37;;;;;;;0.40;0.30;;;;;;;3.19;55.55;96407.53;5090925;28;20956;-56
2024/01/28 05:31:05;;;;;;;0.40;0.40;;;;;;;3.25;54.95;96398.91;5091082;28;20444;-56
2024/01/28 05:33:37;;;;;;;0.70;0.70;;;;;;;3.25;54.84;96409.41;5089364;28;20436;-56
2024/01/28 05:36:13;;;;;;;0.40;0.40;;;;;;;3.30;54.70;96427.94;5072644;28;20469;-56
2024/01/28 05:38:42;;;;;;;0.97;0.87;;;;;;;3.24;54.40;96418.25;5089659;28;20958;-56
2024/01/28 05:41:11;;;;;;;4.83;0.97;;;;;;;3.13;54.40;96363.81;5090689;28;20432;-56
2024/01/28 05:43:39;;;;;;;0.60;0.60;;;;;;;3.33;54.14;96403.16;5090559;28;20440;-57
2024/01/28 05:46:08;;;;;;;0.77;0.77;;;;;;;3.34;54.42;96423.91;5090954;28;20440;-56
2024/01/28 05:48:38;;;;;;;1.27;0.40;;;;;;;3.57;53.92;96424.38;5092459;28;20440;-56
2024/01/28 05:51:07;;;;;;;0.73;0.30;;;;;;;3.40;54.10;96432.81;5084255;28;20515;-57
2024/01/28 05:53:35;;;;;;;0.90;0.60;;;;;;;3.39;53.86;96415.50;5094065;28;20527;-56
2024/01/28 05:56:06;;;;;;;0.50;0.40;;;;;;;3.65;53.84;96452.22;5094399;28;20851;-58
2024/01/28 05:58:35;;;;;;;2.27;0.40;;;;;;;3.54;53.22;96408.28;5094368;28;20443;-57
2024/01/28 06:01:06;;;;;;;1.17;1.07;;;;;;;3.64;53.11;96456.66;5068455;28;20440;-58
2024/01/28 06:03:36;;;;;;;0.63;0.63;;;;;;;3.45;53.76;96443.50;5093753;28;20440;-58
2024/01/28 06:06:07;;;;;;;6.73;0.60;;;;;;;3.88;53.81;96457.13;5093703;28;20497;-58
2024/01/28 06:08:36;;;;;;;0.60;0.60;;;;;;;3.84;52.35;96457.50;5093576;28;20443;-57
2024/01/28 06:11:04;;;;;;;0.80;0.80;;;;;;;3.40;53.49;96465.06;5093827;28;20470;-57
2024/01/28 06:13:33;;;;;;;10.63;4.27;;;;;;;2.97;53.30;96411.28;5093691;28;20432;-57
2024/01/28 06:16:02;;;;;;;2.00;1.50;;;;;;;2.98;53.53;96397.22;5093411;28;20523;-57
2024/01/28 06:18:30;;;;;;;4.93;2.60;;;;;;;3.34;53.50;96454.56;5094069;28;20474;-57
2024/01/28 06:21:01;;;;;;;1.37;1.27;;;;;;;3.19;53.99;96426.69;5093293;28;20436;-56
2024/01/28 06:23:31;;;;;;;2.10;1.83;;;;;;;3.40;53.44;96467.69;5093583;28;20432;-56
2024/01/28 06:25:59;;;;;;;12.00;4.23;;;;;;;3.61;53.47;96467.56;5094196;28;20451;-57
2024/01/28 06:28:28;;;;;;;1.37;1.27;;;;;;;3.28;53.69;96431.78;5094066;28;20429;-55
2024/01/28 06:30:57;;;;;;;1.57;1.57;;;;;;;3.58;53.29;96472.38;5093658;28;20451;-56
2024/01/28 06:33:25;;;;;;;3.40;1.20;;;;;;;4.18;52.04;96466.22;5093866;28;20445;-56
2024/01/28 06:35:54;;;;;;;0.80;0.80;;;;;;;3.98;51.33;96420.81;5067536;28;20432;-56
2024/01/28 06:38:23;;;;;;;3.20;0.97;;;;;;;4.66;50.79;96474.69;5093828;28;20982;-57
2024/01/28 06:40:55;;;;;;;0.83;0.83;;;;;;;5.08;49.53;96464.50;5093424;28;20444;-57
2024/01/28 06:43:25;;;;;;;0.80;0.80;;;;;;;5.20;49.36;96454.19;5093418;28;20447;-57
2024/01/28 06:45:54;;;;;;;1.53;0.63;;;;;;;6.22;47.10;96449.59;5093530;28;20428;-57
2024/01/28 06:48:22;;;;;;;0.40;0.30;;;;;;;6.03;47.45;96455.00;5093252;28;20468;-58
2024/01/28 06:50:52;;;;;;;0.60;0.53;;;;;;;6.99;47.40;96464.09;5093279;28;20524;-58
2024/01/28 06:53:21;;;;;;;0.60;0.40;;;;;;;7.06;49.76;96461.41;5093192;28;20424;-58
2024/01/28 06:55:50;;;;;;;0.30;0.20;;;;;;;7.07;46.63;96469.09;5082490;28;20550;-55
2024/01/28 06:58:20;;;;;;;0.40;0.30;;;;;;;7.48;46.01;96445.50;5073066;28;21046;-56
2024/01/28 07:00:49;;;;;;;0.40;0.30;;;;;;;8.25;46.77;96462.28;5072934;28;20828;-56
2024/01/28 07:03:18;;;;;;;0.43;0.30;;;;;;;8.33;45.51;96469.91;5073041;28;20437;-56
2024/01/28 07:05:47;;;;;;;0.70;0.70;;;;;;;8.56;44.13;96469.16;5073223;28;20516;-56
2024/01/28 07:08:16;;;;;;;0.73;0.73;;;;;;;7.72;43.88;96474.59;5079097;28;20433;-57
2024/01/28 07:10:44;;;;;;;7.10;0.87;;;;;;;7.68;44.23;96422.31;5079018;28;20479;-55
2024/01/28 07:13:13;;;;;;;0.87;0.60;;;;;;;7.40;44.09;96451.06;5093005;28;20486;-55
2024/01/28 07:15:43;;;;;;;1.30;1.30;;;;;;;7.23;44.75;96436.88;5092645;28;20440;-55
2024/01/28 07:18:12;;;;;;;1.17;0.63;;;;;;;6.72;45.13;96425.88;5092539;28;20543;-56
2024/01/28 07:20:41;;;;;;;0.80;0.53;;;;;;;7.71;45.28;96459.81;5074390;28;20442;-56
2024/01/28 07:23:10;;;;;;;1.27;0.80;;;;;;;8.32;43.66;96453.25;5073079;28;20479;-58
2024/01/28 07:25:38;;;;;;;0.60;0.43;;;;;;;9.31;41.85;96457.63;5072402;28;20471;-58
2024/01/28 07:28:08;;;;;;;1.63;0.33;;;;;;;9.02;41.32;96453.31;5083595;28;20447;-57
2024/01/28 07:30:36;;;;;;;0.50;0.50;;;;;;;8.98;41.86;96446.06;5092060;28;20432;-57
2024/01/28 07:33:08;;;;;;;0.57;0.40;;;;;;;9.07;42.15;96421.69;5093010;28;20432;-57
2024/01/28 07:35:37;;;;;;;0.90;0.90;;;;;;;9.06;41.95;96398.13;5091892;28;20443;-57
2024/01/28 07:38:06;;;;;;;1.43;1.43;;;;;;;9.70;39.18;96442.00;5092696;28;20476;-56
2024/01/28 07:40:35;;;;;;;0.60;0.60;;;;;;;10.48;39.20;96442.88;5091553;28;20440;-56
2024/01/28 07:43:03;;;;;;;0.53;0.53;;;;;;;10.31;38.60;96443.91;5092698;28;20432;-57
2024/01/28 07:45:36;;;;;;;0.57;0.40;;;;;;;11.37;37.34;96435.69;5092306;28;20428;-56
2024/01/28 07:48:06;;;;;;;0.43;0.30;;;;;;;11.24;36.45;96433.38;5092246;28;20445;-55
2024/01/28 07:50:35;;;;;;;0.40;0.30;;;;;;;11.77;37.60;96440.69;5092323;28;20940;-55
2024/01/28 07:53:04;;;;;;;0.40;0.30;;;;;;;11.92;35.64;96424.91;5091539;28;20944;-55
2024/01/28 07:55:33;;;;;;;0.43;0.30;;;;;;;12.17;35.11;96421.72;5090007;28;21006;-56
2024/01/28 07:58:01;;;;;;;0.60;0.30;;;;;;;12.62;35.98;96428.19;5090127;28;20468;-57
2024/01/28 08:00:30;;;;;;;0.40;0.40;;;;;;;12.35;34.63;96390.22;5090129;28;20436;-58
2024/01/28 08:02:59;;;;;;;0.40;0.37;;;;;;;13.09;33.67;96411.50;5089654;28;20432;-59
2024/01/28 08:05:29;;;;;;;0.30;0.20;;;;;;;12.71;33.38;96424.03;5090424;28;20472;-59
2024/01/28 08:07:57;;;;;;;0.67;0.30;;;;;;;12.09;33.82;96430.94;5090839;28;20444;-59
2024/01/28 08:10:26;;;;;;;0.50;0.50;;;;;;;12.36;33.65;96354.63;5091097;28;20496;-59
2024/01/28 08:12:55;;;;;;;0.40;0.30;;;;;;;13.36;32.17;96394.34;5091813;28;20432;-58
2024/01/28 08:15:24;;;;;;;0.77;0.77;;;;;;;12.77;31.99;96414.22;5092172;28;20814;-59
2024/01/28 08:17:53;;;;;;;0.40;0.40;;;;;;;11.82;32.37;96424.81;5091158;28;20483;-60
2024/01/28 08:20:21;;;;;;;0.33;0.30;;;;;;;12.46;33.64;96447.75;5091739;28;20490;-59
2024/01/28 08:22:51;;;;;;;0.40;0.30;;;;;;;13.37;32.51;96445.75;5078313;28;20436;-59
2024/01/28 08:25:20;;;;;;;0.50;0.47;;;;;;;12.39;32.58;96438.41;5091169;28;20428;-58
2024/01/28 08:27:49;;;;;;;0.40;0.30;;;;;;;12.10;37.11;96408.63;5091746;28;20440;-60
2024/01/28 08:30:22;;;;;;;0.50;0.40;;;;;;;13.35;32.57;96447.88;5091810;28;20436;-59
2024/01/28 08:32:51;;;;;;;0.40;0.30;;;;;;;14.41;31.49;96440.22;5091987;28;20474;-61
2024/01/28 08:35:21;;;;;;;0.40;0.30;;;;;;;15.35;29.53;96440.41;5091240;28;20462;-61
2024/01/28 08:37:51;;;;;;;0.30;0.20;;;;;;;16.19;30.16;96450.22;5090680;28;20468;-61
2024/01/28 08:40:20;;;;;;;0.50;0.30;;;;;;;15.39;29.77;96424.63;5091042;28;20514;-60
2024/01/28 08:42:49;;;;;;;0.40;0.30;;;;;;;14.50;29.49;96394.06;5091710;28;20489;-60
2024/01/28 08:45:19;;;;;;;0.43;0.33;;;;;;;14.02;29.85;96437.19;5091210;28;20436;-61
2024/01/28 08:47:48;;;;;;;0.37;0.23;;;;;;;14.80;30.17;96448.50;5091117;28;20459;-61
2024/01/28 08:50:17;;;;;;;0.40;0.30;;;;;;;14.60;29.97;96411.94;5090782;28;20923;-60
2024/01/28 08:52:45;;;;;;;0.40;0.30;;;;;;;14.00;30.04;96423.31;5091719;28;20440;-60
2024/01/28 08:55:15;;;;;;;0.40;0.30;;;;;;;15.63;30.35;96449.69;5090580;28;21002;-59
2024/01/28 08:57:44;;;;;;;0.40;0.20;;;;;;;15.98;28.92;96432.69;5091449;28;20474;-57
2024/01/28 09:00:14;;;;;;;0.40;0.30;;;;;;;15.05;30.09;96449.25;5091364;28;20948;-59
2024/01/28 09:02:43;;;;;;;0.53;0.47;;;;;;;15.52;28.65;96456.94;5077836;28;20964;-58
2024/01/28 09:05:12;;;;;;;0.40;0.20;;;;;;;16.05;28.72;96446.53;5091732;28;20444;-58
2024/01/28 09:07:41;;;;;;;0.40;0.30;;;;;;;14.99;29.46;96450.34;5091210;28;20802;-58
2024/01/28 09:10:11;;;;;;;0.40;0.30;;;;;;;14.59;29.60;96447.72;5091555;28;20460;-57
2024/01/28 09:12:41;;;;;;;0.40;0.20;;;;;;;15.70;29.02;96444.84;5091336;28;20920;-57
2024/01/28 09:15:10;;;;;;;0.40;0.30;;;;;;;15.34;29.09;96462.03;5091320;28;20440;-57
2024/01/28 09:17:39;;;;;;;0.50;0.30;;;;;;;14.81;30.25;96448.22;5090585;28;20432;-57
2024/01/28 09:20:09;;;;;;;0.30;0.20;;;;;;;15.33;29.03;96447.09;5079692;28;20433;-57
2024/01/28 09:22:38;;;;;;;0.50;0.50;;;;;;;15.12;29.43;96449.81;5091350;28;20507;-57
2024/01/28 09:25:07;;;;;;;0.60;0.40;;;;;;;16.16;29.81;96445.44;5094805;28;20523;-57
2024/01/28 09:27:36;;;;;;;0.40;0.30;;;;;;;15.40;28.19;96448.41;5094769;28;20444;-57
2024/01/28 09:30:07;;;;;;;0.40;0.30;;;;;;;15.09;29.26;96447.66;5094099;28;20467;-57
2024/01/28 09:32:36;;;;;;;0.40;0.30;;;;;;;15.35;29.47;96452.94;5095161;28;20424;-57
2024/01/28 09:35:05;;;;;;;0.40;0.30;;;;;;;15.74;28.69;96454.72;5094659;28;20523;-56
2024/01/28 09:37:34;;;;;;;0.40;0.27;;;;;;;15.24;29.40;96439.63;5095007;28;20791;-57
2024/01/28 09:40:03;;;;;;;1.23;0.40;;;;;;;14.71;28.50;96445.56;5095068;28;21008;-57
2024/01/28 09:42:38;;;;;;;6.60;0.50;;;;;;;15.07;29.84;96444.47;5095299;28;20437;-57
2024/01/28 09:45:10;;;;;;;0.40;0.27;;;;;;;16.01;28.45;96443.63;5094865;28;20427;-56
2024/01/28 09:47:39;;;;;;;0.60;0.47;;;;;;;16.04;27.86;96362.84;5095007;28;20439;-57
2024/01/28 09:50:10;;;;;;;0.40;0.30;;;;;;;17.26;27.55;96411.59;5095193;28;20884;-57
2024/01/28 09:52:38;;;;;;;0.40;0.30;;;;;;;17.49;25.57;96436.81;5094763;28;20493;-56
2024/01/28 09:55:08;;;;;;;0.60;0.53;;;;;;;16.34;26.18;96418.81;5093696;28;20465;-57
2024/01/28 09:57:38;;;;;;;0.40;0.40;;;;;;;14.74;26.68;96438.91;5094677;28;20432;-56
2024/01/28 10:00:09;;;;;;;0.40;0.30;;;;;;;15.43;29.89;96449.72;5094643;28;20478;-56
2024/01/28 10:02:40;;;;;;;1.03;0.30;;;;;;;16.32;26.92;96425.50;5094206;28;20432;-57
2024/01/28 10:05:14;;;;;;;0.60;0.50;;;;;;;15.75;27.33;96432.28;5093562;28;20428;-58
2024/01/28 10:07:44;;;;;;;0.50;0.50;;;;;;;15.08;26.68;96427.38;5093453;28;20436;-57
2024/01/28 10:10:13;;;;;;;0.50;0.43;;;;;;;15.10;27.35;96405.75;5094651;28;20436;-57
2024/01/28 10:12:42;;;;;;;0.60;0.33;;;;;;;15.23;27.28;96429.19;5093958;28;20447;-57
2024/01/28 10:15:19;;;;;;;0.40;0.30;;;;;;;14.80;27.70;96422.59;5094335;28;20506;-58
2024/01/28 10:17:49;;;;;;;0.40;0.30;;;;;;;15.13;27.33;96363.25;5094302;28;20427;-57
2024/01/28 10:20:19;;;;;;;0.30;0.20;;;;;;;15.87;27.01;96389.16;5094224;28;20476;-57
2024/01/28 10:22:48;;;;;;;0.30;0.20;;;;;;;16.81;27.84;96423.56;5093859;28;20464;-56
2024/01/28 10:25:18;;;;;;;0.40;0.20;;;;;;;17.42;25.28;96405.00;5093677;28;20523;-57
2024/01/28 10:27:49;;;;;;;0.30;0.20;;;;;;;18.47;30.35;96412.75;5094457;28;20439;-56
2024/01/28 10:30:19;;;;;;;0.40;0.37;;;;;;;17.66;24.37;96408.47;5093726;28;20519;-57
2024/01/28 10:32:49;;;;;;;0.40;0.30;;;;;;;18.31;24.91;96416.72;5094297;28;20508;-57
2024/01/28 10:35:17;;;;;;;0.40;0.30;;;;;;;17.53;24.46;96395.75;5092578;28;20477;-58
2024/01/28 10:37:52;;;;;;;0.40;0.20;;;;;;;17.85;23.93;96402.34;5093756;28;20527;-57
2024/01/28 10:40:23;;;;;;;7.70;0.30;;;;;;;19.18;25.93;96414.22;5093047;28;20998;-56
2024/01/28 10:42:56;;;;;;;0.30;0.20;;;;;;;19.16;24.25;96390.34;5093255;28;20479;-57
2024/01/28 10:45:29;;;;;;;0.30;0.20;;;;;;;18.32;23.54;96400.31;5093651;28;20428;-57
2024/01/28 10:48:05;;;;;;;0.40;0.30;;;;;;;18.64;24.52;96407.66;5094218;28;20436;-57
2024/01/28 10:50:34;;;;;;;0.40;0.30;;;;;;;17.94;23.78;96377.25;5067586;28;20876;-56
2024/01/28 10:53:05;;;;;;;0.30;0.20;;;;;;;18.59;23.87;96407.75;5093395;28;20786;-56
2024/01/28 10:55:34;;;;;;;0.40;0.30;;;;;;;19.49;23.62;96399.97;5093508;28;20476;-56
2024/01/28 10:58:05;;;;;;;0.40;0.30;;;;;;;20.68;23.75;96390.63;5093426;28;20812;-58
2024/01/28 11:00:36;;;;;;;0.40;0.30;;;;;;;20.46;23.46;96385.25;5093225;28;20476;-57
2024/01/28 11:03:07;;;;;;;0.30;0.20;;;;;;;19.76;23.01;96380.28;5093552;28;20428;-56
2024/01/28 11:05:37;;;;;;;0.40;0.30;;;;;;;20.45;22.50;96380.94;5093456;28;20471;-56
2024/01/28 11:08:06;;;;;;;0.53;0.53;;;;;;;18.99;27.99;96355.19;5093122;28;20944;-56
2024/01/28 11:10:35;;;;;;;0.40;0.20;;;;;;;18.38;23.31;96374.22;5092861;28;20444;-57
2024/01/28 11:13:07;;;;;;;0.40;0.30;;;;;;;18.51;25.12;96349.34;5093574;28;20501;-55
2024/01/28 11:15:37;;;;;;;0.40;0.30;;;;;;;19.30;23.04;96336.59;5093107;28;20440;-56
2024/01/28 11:18:09;;;;;;;1.47;1.47;;;;;;;17.45;23.40;96366.09;5060502;28;20802;-56
2024/01/28 11:20:38;;;;;;;0.47;0.47;;;;;;;17.88;23.57;96383.00;5087232;28;20505;-58
2024/01/28 11:23:16;;;;;;;0.40;0.30;;;;;;;19.34;24.34;96369.84;5093298;28;20463;-57
2024/01/28 11:25:46;;;;;;;0.40;0.30;;;;;;;18.96;23.09;96363.84;5092533;28;20941;-57
2024/01/28 11:28:16;;;;;;;0.40;0.40;;;;;;;18.77;22.92;96326.28;5092972;28;20440;-56
2024/01/28 11:30:52;;;;;;;0.40;0.40;;;;;;;18.06;22.86;96347.34;5092406;28;20439;-56
2024/01/28 11:33:21;;;;;;;1.07;0.40;;;;;;;16.85;23.73;96364.91;5092685;28;20516;-56
2024/01/28 11:35:52;;;;;;;0.80;0.40;;;;;;;16.89;24.23;96357.88;5092287;28;20865;-56
2024/01/28 11:38:22;;;;;;;0.30;0.20;;;;;;;19.39;22.96;96338.31;5092626;28;20933;-57
2024/01/28 11:40:59;;;;;;;0.30;0.20;;;;;;;19.85;23.36;96343.53;5092631;28;20476;-56
2024/01/28 11:43:28;;;;;;;0.57;0.57;;;;;;;19.05;22.46;96340.56;5091748;28;20435;-56
2024/01/28 11:46:00;;;;;;;0.40;0.30;;;;;;;19.36;22.50;96340.75;5091391;28;20451;-57
2024/01/28 11:48:29;;;;;;;0.37;0.20;;;;;;;17.79;22.96;96342.59;5092139;28;20874;-56